VVDN

Da Nang International Airport

Airport
ICAO code
VVDN
IATA Code
DAD
Summary
ICAO Region
APAC
ICAO Territory
Location

Da Nang, Da Nang

Serving
Da Nang
Elevation
33 ft
Coordinates
16° 2' 38" N , 108° 11' 58" E
KCC
Am
Airport LOS
Parallel Runway Operation
Airport WX
Cumulonimbus
Metar
Observation
VVDN 081900Z VRB01KT 9999 -RA SCT015 BKN050 27/23 Q1002 NOSIG
Station
Da Nang
Date/Time
2022-08-08 19:00:00
Wind speed
01 kts
Lowest cloud amount
scattered clouds
Temperature
27°C
Dew point
23°C
Humidity
78%
QNH
1002 hPa
Weather condition
light rain

Da Nang International Airport is located in Da Nang, the largest city in central Vietnam.

Climatology

Tropical monsoon climate (Köppen climate classification Am)

Airport map

Aerial View

SKYbrary Partners:

Safety knowledge contributed by: